Time;durP1;ratioP1;P1;durP2;ratioP2;P2;SDS_P1;SDS_P2;PMS_P1;PMS_P2;Temp;Humidity;BMP_temperature;BMP_pressure;BME280_temperature;BME280_humidity;BME280_pressure;Samples;Min_cycle;Max_cycle;Signal;HPM_P1;HPM_P2
2023/06/29 00:01:02;;;;;;;2.63;2.25;;;;;;;17.98;100.00;97416.09;5034042;28;20410;-69
2023/06/29 00:03:33;;;;;;;3.53;2.33;;;;;;;17.97;100.00;97418.00;5033789;28;20410;-69
2023/06/29 00:06:00;;;;;;;3.20;2.20;;;;;;;17.94;100.00;97413.25;5034234;28;20888;-69
2023/06/29 00:08:27;;;;;;;2.38;1.67;;;;;;;17.93;100.00;97414.34;5034019;28;20905;-69
2023/06/29 00:10:55;;;;;;;3.35;2.15;;;;;;;17.90;100.00;97414.91;5034133;28;20458;-69
2023/06/29 00:13:22;;;;;;;3.47;2.28;;;;;;;17.90;100.00;97416.78;5033912;28;20884;-69
2023/06/29 00:15:48;;;;;;;3.70;2.38;;;;;;;17.87;100.00;97410.16;5033858;28;20439;-69
2023/06/29 00:18:15;;;;;;;2.75;1.90;;;;;;;17.86;100.00;97405.91;5033587;28;20449;-69
2023/06/29 00:20:43;;;;;;;2.70;2.00;;;;;;;17.86;100.00;97411.25;5033872;28;20456;-69
2023/06/29 00:23:09;;;;;;;3.42;2.28;;;;;;;17.83;100.00;97403.00;5033621;28;20464;-69
2023/06/29 00:25:38;;;;;;;2.22;1.92;;;;;;;17.80;100.00;97409.78;5033834;28;20410;-69
2023/06/29 00:28:05;;;;;;;3.15;2.28;;;;;;;17.78;100.00;97410.06;5033765;28;20930;-70
2023/06/29 00:30:31;;;;;;;4.57;2.58;;;;;;;17.76;100.00;97409.56;5033768;28;20486;-69
2023/06/29 00:32:57;;;;;;;3.63;2.47;;;;;;;17.72;100.00;97405.91;5033451;28;20422;-68
2023/06/29 00:35:23;;;;;;;3.38;2.28;;;;;;;17.68;100.00;97399.53;5032287;28;20410;-69
2023/06/29 00:37:51;;;;;;;5.35;2.63;;;;;;;17.66;100.00;97398.25;5033674;28;20481;-68
2023/06/29 00:40:17;;;;;;;3.75;2.30;;;;;;;17.63;100.00;97396.16;5033705;28;20481;-69
2023/06/29 00:42:43;;;;;;;3.83;2.47;;;;;;;17.62;100.00;97394.56;5033226;28;20414;-68
2023/06/29 00:45:10;;;;;;;3.80;2.58;;;;;;;17.57;100.00;97395.44;5032074;28;20403;-68
2023/06/29 00:47:37;;;;;;;3.38;2.70;;;;;;;17.54;100.00;97393.34;5033334;28;20449;-69
2023/06/29 00:50:04;;;;;;;3.47;2.50;;;;;;;17.51;100.00;97395.81;5033404;28;20978;-69
2023/06/29 00:52:31;;;;;;;2.03;1.80;;;;;;;17.48;100.00;97381.16;5033040;28;20458;-69
2023/06/29 00:54:59;;;;;;;3.65;2.38;;;;;;;17.47;100.00;97376.09;5033305;28;20758;-68
2023/06/29 00:57:25;;;;;;;5.25;2.90;;;;;;;17.47;100.00;97384.91;5033359;28;20884;-69
2023/06/29 00:59:52;;;;;;;4.88;2.60;;;;;;;17.42;100.00;97380.44;5032017;28;20904;-69
2023/06/29 01:02:18;;;;;;;2.83;2.20;;;;;;;17.41;100.00;97380.75;5032974;28;20407;-69
2023/06/29 01:04:45;;;;;;;4.75;2.28;;;;;;;17.39;100.00;97380.22;5033036;28;20403;-69
2023/06/29 01:07:17;;;;;;;2.53;2.28;;;;;;;17.35;100.00;97377.38;5032966;28;20441;-69
2023/06/29 01:09:46;;;;;;;3.70;2.50;;;;;;;17.32;100.00;97379.81;5033081;28;20919;-69
2023/06/29 01:12:16;;;;;;;3.45;2.17;;;;;;;17.28;100.00;97379.63;5032772;28;20405;-69
2023/06/29 01:14:44;;;;;;;3.00;2.13;;;;;;;17.25;100.00;97382.88;5032738;28;20869;-69
2023/06/29 01:17:14;;;;;;;3.95;2.53;;;;;;;17.26;100.00;97371.09;5032963;28;20885;-69
2023/06/29 01:19:43;;;;;;;3.88;2.70;;;;;;;17.25;100.00;97379.41;5032829;28;20873;-69
2023/06/29 01:22:14;;;;;;;3.05;2.42;;;;;;;17.21;100.00;97375.75;5032528;28;20486;-69
2023/06/29 01:24:42;;;;;;;3.58;2.60;;;;;;;17.20;100.00;97376.84;5033111;28;20501;-69
2023/06/29 01:27:10;;;;;;;3.75;2.47;;;;;;;17.17;100.00;97372.06;5032632;28;20481;-69
2023/06/29 01:29:36;;;;;;;3.63;2.40;;;;;;;17.15;100.00;97371.53;5031328;28;20601;-69
2023/06/29 01:32:07;;;;;;;6.10;2.65;;;;;;;17.12;100.00;97364.91;5032468;28;20771;-69
2023/06/29 01:34:35;;;;;;;4.07;2.63;;;;;;;17.08;100.00;97373.81;5032590;28;20410;-69
2023/06/29 01:37:08;;;;;;;3.60;2.53;;;;;;;17.07;100.00;97372.22;5032604;28;20493;-69
2023/06/29 01:39:42;;;;;;;3.42;2.63;;;;;;;17.05;100.00;97372.53;5032395;28;20399;-69
2023/06/29 01:42:11;;;;;;;3.28;2.60;;;;;;;17.01;100.00;97363.50;5030753;28;20518;-69
2023/06/29 01:44:37;;;;;;;2.67;2.20;;;;;;;17.00;100.00;97361.91;5032331;28;20417;-69
2023/06/29 01:47:06;;;;;;;2.40;2.20;;;;;;;16.98;100.00;97372.91;5032367;28;20422;-69
2023/06/29 01:49:34;;;;;;;5.53;2.50;;;;;;;16.96;100.00;97361.69;5032427;28;20803;-69
2023/06/29 01:52:01;;;;;;;5.35;2.60;;;;;;;16.95;100.00;97362.00;5032062;28;20411;-69
2023/06/29 01:54:27;;;;;;;4.30;2.80;;;;;;;16.90;100.00;97362.88;5032203;28;20422;-69
2023/06/29 01:56:54;;;;;;;4.13;2.80;;;;;;;16.87;100.00;97358.09;5031976;28;20490;-69
2023/06/29 01:59:21;;;;;;;4.95;2.80;;;;;;;16.85;100.00;97360.25;5032098;28;20756;-69
2023/06/29 02:01:47;;;;;;;3.15;2.53;;;;;;;16.83;100.00;97362.47;5030455;28;20411;-69
2023/06/29 02:04:13;;;;;;;4.07;2.60;;;;;;;16.81;100.00;97359.28;5032335;28;20748;-69
2023/06/29 02:06:40;;;;;;;3.95;2.60;;;;;;;16.81;100.00;97361.16;5031985;28;20769;-69
2023/06/29 02:09:06;;;;;;;4.00;2.73;;;;;;;16.78;100.00;97361.72;5031569;28;20418;-69
2023/06/29 02:11:32;;;;;;;2.67;2.35;;;;;;;16.73;100.00;97357.25;5031649;28;20434;-69
2023/06/29 02:14:00;;;;;;;4.93;2.53;;;;;;;16.70;100.00;97355.16;5031840;28;20537;-69
2023/06/29 02:16:26;;;;;;;4.43;2.70;;;;;;;16.66;100.00;97354.16;5031767;28;20429;-69
2023/06/29 02:18:52;;;;;;;2.70;2.30;;;;;;;16.64;100.00;97345.63;5030526;28;20980;-69
2023/06/29 02:21:18;;;;;;;5.73;2.87;;;;;;;16.63;100.00;97347.50;5031114;28;20399;-70
2023/06/29 02:23:45;;;;;;;3.25;2.30;;;;;;;16.60;100.00;97347.28;5031588;28;20430;-70
2023/06/29 02:26:11;;;;;;;2.92;2.40;;;;;;;16.57;100.00;97342.50;5031588;28;20480;-70
2023/06/29 02:28:38;;;;;;;5.18;2.63;;;;;;;16.55;100.00;97350.00;5030011;28;20415;-70
2023/06/29 02:31:05;;;;;;;3.60;2.60;;;;;;;16.55;100.00;97340.09;5031537;28;20923;-69
2023/06/29 02:33:31;;;;;;;2.87;2.30;;;;;;;16.55;100.00;97348.13;5031203;28;20540;-69
2023/06/29 02:35:58;;;;;;;2.78;1.77;;;;;;;16.55;100.00;97342.00;5031434;28;20434;-69
2023/06/29 02:38:24;;;;;;;3.38;2.47;;;;;;;16.55;100.00;97342.78;5030132;28;20400;-69
2023/06/29 02:40:50;;;;;;;4.13;2.63;;;;;;;16.55;100.00;97336.66;5031656;28;20568;-69
2023/06/29 02:43:16;;;;;;;3.35;2.35;;;;;;;16.51;100.00;97333.78;5031266;28;20411;-70
2023/06/29 02:45:42;;;;;;;6.68;2.90;;;;;;;16.51;100.00;97325.75;5031324;28;20532;-69
2023/06/29 02:48:10;;;;;;;4.20;2.65;;;;;;;16.45;100.00;97329.59;5031145;28;20419;-69
2023/06/29 02:50:36;;;;;;;5.45;2.45;;;;;;;16.42;100.00;97324.81;5031597;28;20745;-69
2023/06/29 02:53:03;;;;;;;2.80;2.35;;;;;;;16.40;100.00;97326.19;5030968;28;20415;-70
2023/06/29 02:55:31;;;;;;;3.15;2.35;;;;;;;16.39;100.00;97329.97;5029781;28;20431;-69
2023/06/29 02:57:57;;;;;;;3.00;2.35;;;;;;;16.39;100.00;97330.72;5029756;28;20447;-69
2023/06/29 03:00:24;;;;;;;5.05;2.40;;;;;;;16.40;100.00;97331.53;5031213;28;20815;-69
2023/06/29 03:02:50;;;;;;;3.63;2.40;;;;;;;16.36;100.00;97322.50;5030747;28;21189;-70
2023/06/29 03:05:18;;;;;;;2.92;2.20;;;;;;;16.33;100.00;97321.19;5029799;28;20419;-69
2023/06/29 03:07:44;;;;;;;2.50;2.30;;;;;;;16.30;100.00;97318.34;5030851;28;20414;-69
2023/06/29 03:10:10;;;;;;;3.13;2.25;;;;;;;16.28;100.00;97329.28;5031011;28;20461;-69
2023/06/29 03:12:36;;;;;;;2.50;2.20;;;;;;;16.28;100.00;97321.28;5030706;28;20883;-69
2023/06/29 03:15:03;;;;;;;2.10;1.90;;;;;;;16.29;100.00;97324.75;5030902;28;20453;-70
2023/06/29 03:17:29;;;;;;;3.38;2.35;;;;;;;16.28;100.00;97326.63;5030773;28;20410;-69
2023/06/29 03:19:55;;;;;;;3.08;2.30;;;;;;;16.27;100.00;97322.38;5031043;28;20407;-69
2023/06/29 03:22:25;;;;;;;3.70;2.65;;;;;;;16.24;100.00;97325.59;5030563;28;20498;-69
2023/06/29 03:24:51;;;;;;;5.50;2.83;;;;;;;16.23;100.00;97322.16;5030862;28;20399;-70
2023/06/29 03:27:17;;;;;;;4.80;2.80;;;;;;;16.19;100.00;97323.81;5030580;28;20543;-69
2023/06/29 03:29:43;;;;;;;3.97;2.72;;;;;;;16.14;100.00;97318.53;5030910;28;20792;-69
2023/06/29 03:32:10;;;;;;;3.65;2.53;;;;;;;16.11;100.00;97320.97;5031732;28;20414;-68
2023/06/29 03:34:36;;;;;;;4.00;2.80;;;;;;;16.08;100.00;97324.25;5034727;28;20407;-68
2023/06/29 03:37:02;;;;;;;4.95;2.50;;;;;;;16.07;100.00;97322.66;5034818;28;20916;-68
2023/06/29 03:39:30;;;;;;;4.78;2.88;;;;;;;16.09;100.00;97328.47;5033294;28;20501;-69
2023/06/29 03:41:56;;;;;;;4.85;2.80;;;;;;;16.08;100.00;97326.91;5034371;28;20884;-68
2023/06/29 03:44:22;;;;;;;5.68;3.00;;;;;;;16.07;100.00;97323.44;5034619;28;20414;-68
2023/06/29 03:46:49;;;;;;;4.43;2.85;;;;;;;16.06;100.00;97326.41;5034571;28;20887;-69
2023/06/29 03:49:15;;;;;;;4.32;2.78;;;;;;;16.03;100.00;97317.06;5013767;28;20420;-69
2023/06/29 03:51:41;;;;;;;4.50;3.10;;;;;;;16.02;100.00;97320.81;5014720;28;20405;-69
2023/06/29 03:54:08;;;;;;;6.05;3.08;;;;;;;16.01;100.00;97316.59;5013146;28;20423;-68
2023/06/29 03:56:35;;;;;;;3.60;2.60;;;;;;;16.00;100.00;97320.34;5014510;28;20412;-69
2023/06/29 03:59:02;;;;;;;2.75;2.50;;;;;;;16.01;100.00;97310.47;5013244;28;21111;-69
2023/06/29 04:01:28;;;;;;;2.50;2.30;;;;;;;16.02;100.00;97317.34;5012771;28;20411;-69
2023/06/29 04:03:54;;;;;;;3.60;2.70;;;;;;;16.04;100.00;97313.31;5014507;28;20735;-69
2023/06/29 04:06:20;;;;;;;4.15;2.75;;;;;;;16.07;100.00;97314.63;5014460;28;20471;-69
2023/06/29 04:08:46;;;;;;;4.30;2.47;;;;;;;16.08;100.00;97317.03;5014347;28;20491;-69
2023/06/29 04:11:13;;;;;;;6.38;2.80;;;;;;;16.11;100.00;97315.63;5013995;28;20409;-69
2023/06/29 04:13:40;;;;;;;3.45;2.53;;;;;;;16.14;100.00;97313.19;5013546;28;20400;-69
2023/06/29 04:16:06;;;;;;;4.95;3.17;;;;;;;16.17;100.00;97312.59;5013773;28;20773;-69
2023/06/29 04:18:35;;;;;;;3.55;2.30;;;;;;;16.20;100.00;97305.91;5003624;28;20413;-69
2023/06/29 04:21:01;;;;;;;3.22;2.50;;;;;;;16.24;100.00;97305.03;4999968;28;20414;-69
2023/06/29 04:23:27;;;;;;;4.57;2.70;;;;;;;16.29;100.00;97298.84;4994477;28;20946;-69
2023/06/29 04:25:53;;;;;;;4.20;2.50;;;;;;;16.35;100.00;97303.00;5001890;28;20439;-68
2023/06/29 04:28:19;;;;;;;2.92;2.17;;;;;;;16.40;100.00;97310.16;5014067;28;20759;-69
2023/06/29 04:30:47;;;;;;;2.50;2.30;;;;;;;16.45;100.00;97310.09;5013930;28;20408;-69
2023/06/29 04:33:15;;;;;;;3.60;2.35;;;;;;;16.50;100.00;97305.47;5013616;28;20416;-69
2023/06/29 04:35:42;;;;;;;4.53;2.20;;;;;;;16.57;100.00;97313.91;5024720;28;20435;-69
2023/06/29 04:38:09;;;;;;;2.40;2.20;;;;;;;16.63;100.00;97309.28;5033549;28;20482;-71
2023/06/29 04:40:35;;;;;;;3.00;2.15;;;;;;;16.68;100.00;97300.41;5033600;28;20474;-69
2023/06/29 04:43:02;;;;;;;3.70;2.33;;;;;;;16.74;100.00;97301.91;5032713;28;20403;-70
2023/06/29 04:45:31;;;;;;;2.55;2.20;;;;;;;16.78;100.00;97303.69;5032083;28;20411;-68
2023/06/29 04:48:00;;;;;;;2.05;1.85;;;;;;;16.85;100.00;97303.31;5031975;28;20950;-69
2023/06/29 04:50:30;;;;;;;3.22;2.20;;;;;;;16.90;100.00;97300.59;5027987;28;20906;-69
2023/06/29 04:52:58;;;;;;;3.00;2.30;;;;;;;16.96;100.00;97294.06;5002876;28;20415;-69
2023/06/29 04:55:24;;;;;;;1.98;1.80;;;;;;;17.03;100.00;97303.28;4999009;28;20397;-68
2023/06/29 04:57:51;;;;;;;3.50;2.00;;;;;;;17.10;100.00;97302.91;5010163;28;20863;-69
2023/06/29 05:00:19;;;;;;;3.20;2.30;;;;;;;17.19;100.00;97301.13;5013136;28;20480;-69
2023/06/29 05:02:46;;;;;;;2.70;1.92;;;;;;;17.27;100.00;97296.97;5012704;28;20409;-69
2023/06/29 05:05:13;;;;;;;2.95;2.00;;;;;;;17.36;100.00;97293.34;5013519;28;20455;-69
2023/06/29 05:07:41;;;;;;;3.15;2.50;;;;;;;17.47;100.00;97291.25;5013018;28;20412;-69
2023/06/29 05:10:08;;;;;;;2.57;1.83;;;;;;;17.56;100.00;97297.50;5013373;28;20409;-70
2023/06/29 05:12:34;;;;;;;2.78;1.90;;;;;;;17.66;100.00;97296.53;5012953;28;20404;-69
2023/06/29 05:15:00;;;;;;;3.07;1.97;;;;;;;17.75;100.00;97300.88;5013100;28;20417;-70
2023/06/29 05:17:26;;;;;;;2.50;1.80;;;;;;;17.84;100.00;97295.59;5004280;28;20412;-69
2023/06/29 05:19:52;;;;;;;2.08;1.80;;;;;;;17.91;100.00;97298.66;5011287;28;20928;-69
2023/06/29 05:22:20;;;;;;;1.70;1.60;;;;;;;17.98;100.00;97298.25;4996020;28;20497;-69
2023/06/29 05:24:46;;;;;;;3.08;1.75;;;;;;;18.06;100.00;97295.66;5006735;28;20495;-69
2023/06/29 05:27:13;;;;;;;3.27;1.80;;;;;;;18.13;100.00;97292.56;5007887;28;20435;-69
2023/06/29 05:29:39;;;;;;;2.28;1.70;;;;;;;18.19;100.00;97296.75;5007812;28;20408;-69
2023/06/29 05:32:06;;;;;;;2.05;1.75;;;;;;;18.26;100.00;97283.72;5006747;28;20886;-69
2023/06/29 05:34:32;;;;;;;6.43;2.80;;;;;;;18.36;100.00;97294.19;5007832;28;20420;-69
2023/06/29 05:36:58;;;;;;;4.95;2.53;;;;;;;18.41;100.00;97295.97;5007990;28;21764;-69
2023/06/29 05:39:27;;;;;;;4.90;2.25;;;;;;;18.44;100.00;97292.69;5011348;28;20960;-69
2023/06/29 05:41:53;;;;;;;6.97;3.35;;;;;;;18.47;100.00;97294.75;5011613;28;20500;-69
2023/06/29 05:44:19;;;;;;;5.25;2.40;;;;;;;18.53;100.00;97294.34;5001180;28;20956;-69
2023/06/29 05:46:45;;;;;;;6.05;3.00;;;;;;;18.56;100.00;97298.34;5002613;28;20424;-69
2023/06/29 05:49:12;;;;;;;7.60;3.60;;;;;;;18.60;100.00;97291.25;5008532;28;20499;-69
2023/06/29 05:51:38;;;;;;;7.85;2.90;;;;;;;18.63;100.00;97293.34;5011338;28;20412;-70
2023/06/29 05:54:04;;;;;;;6.40;2.90;;;;;;;18.65;94.91;97287.66;5007701;28;20496;-69
2023/06/29 05:56:32;;;;;;;6.83;2.77;;;;;;;18.63;88.37;97282.63;5009918;28;20413;-69
2023/06/29 05:58:58;;;;;;;9.18;3.10;;;;;;;18.65;89.49;97283.09;5012495;28;20403;-69
2023/06/29 06:01:24;;;;;;;6.28;2.78;;;;;;;18.69;90.16;97284.06;5012180;28;20463;-69
2023/06/29 06:03:51;;;;;;;3.63;2.22;;;;;;;18.74;93.73;97289.31;5012238;28;20419;-69
2023/06/29 06:06:17;;;;;;;12.48;3.40;;;;;;;18.76;89.45;97297.03;5012099;28;20484;-69
2023/06/29 06:08:43;;;;;;;6.13;2.47;;;;;;;18.77;88.99;97290.59;5003929;28;20428;-69
2023/06/29 06:11:09;;;;;;;5.03;2.60;;;;;;;18.79;90.75;97291.88;5006562;28;20409;-69
2023/06/29 06:13:37;;;;;;;5.28;2.40;;;;;;;18.82;91.52;97288.56;5000051;28;20416;-69
2023/06/29 06:16:05;;;;;;;4.72;2.00;;;;;;;18.87;92.97;97284.97;5005242;28;20413;-71
2023/06/29 06:18:31;;;;;;;3.72;2.30;;;;;;;18.91;93.68;97289.41;5008655;28;20409;-71
2023/06/29 06:20:59;;;;;;;3.10;1.95;;;;;;;18.98;94.32;97286.31;5011533;28;20404;-70
2023/06/29 06:23:25;;;;;;;5.47;2.50;;;;;;;19.01;91.90;97291.06;5011362;28;20407;-70
2023/06/29 06:25:52;;;;;;;4.30;2.38;;;;;;;19.07;90.85;97280.97;5006743;28;20444;-70
2023/06/29 06:28:18;;;;;;;3.58;2.20;;;;;;;19.14;92.37;97286.69;4999715;28;20415;-69
2023/06/29 06:30:47;;;;;;;4.10;2.40;;;;;;;19.21;92.76;97287.06;5009463;28;20887;-69
2023/06/29 06:33:14;;;;;;;4.20;2.30;;;;;;;19.28;92.83;97287.41;5011267;28;20405;-68
2023/06/29 06:35:41;;;;;;;3.28;2.25;;;;;;;19.41;90.63;97283.81;5011263;28;20404;-69
2023/06/29 06:38:07;;;;;;;4.78;2.35;;;;;;;19.48;87.46;97289.56;5011228;28;20404;-68
2023/06/29 06:40:33;;;;;;;5.68;2.33;;;;;;;19.52;87.11;97282.47;5011360;28;20763;-69
2023/06/29 06:43:00;;;;;;;3.17;2.00;;;;;;;19.59;88.46;97285.50;5010949;28;20416;-69
2023/06/29 06:45:28;;;;;;;5.05;2.65;;;;;;;19.73;84.51;97280.00;5010973;28;20405;-69
2023/06/29 06:47:55;;;;;;;6.03;2.50;;;;;;;19.74;82.89;97281.59;5011342;28;20898;-69
2023/06/29 06:50:22;;;;;;;3.95;2.15;;;;;;;19.79;84.51;97286.81;5011182;28;20423;-69
2023/06/29 06:52:48;;;;;;;3.40;2.10;;;;;;;19.86;85.74;97284.44;5010763;28;20980;-69
2023/06/29 06:55:15;;;;;;;2.85;1.90;;;;;;;19.92;86.51;97283.19;5011081;28;20897;-69
2023/06/29 06:57:41;;;;;;;3.25;1.83;;;;;;;19.96;86.51;97275.31;5011076;28;20428;-68
2023/06/29 07:00:13;;;;;;;4.77;1.80;;;;;;;20.01;86.71;97277.84;5010822;28;20412;-69
2023/06/29 07:02:39;;;;;;;4.97;2.20;;;;;;;20.03;84.90;97276.44;5010260;28;20404;-69
2023/06/29 07:05:08;;;;;;;2.95;1.90;;;;;;;20.08;84.65;97265.50;5011208;28;20442;-69
2023/06/29 07:07:35;;;;;;;4.43;2.03;;;;;;;20.10;85.75;97266.00;5009410;28;20463;-69
2023/06/29 07:10:01;;;;;;;3.55;1.90;;;;;;;20.15;86.13;97264.28;5009674;28;20409;-69
2023/06/29 07:12:27;;;;;;;4.70;2.03;;;;;;;20.19;86.47;97262.53;5010801;28;20405;-69
2023/06/29 07:14:53;;;;;;;2.53;1.65;;;;;;;20.24;87.02;97262.34;5010723;28;20412;-69
2023/06/29 07:17:20;;;;;;;2.58;1.90;;;;;;;20.30;87.71;97261.88;5010875;28;20481;-69
2023/06/29 07:19:46;;;;;;;3.30;1.90;;;;;;;20.38;88.07;97263.03;5010580;28;20424;-70
2023/06/29 07:22:14;;;;;;;3.58;1.80;;;;;;;20.48;87.69;97257.31;5010435;28;20479;-70
2023/06/29 07:24:40;;;;;;;11.85;2.95;;;;;;;20.41;77.64;97259.72;5010985;28;20433;-70
2023/06/29 07:27:06;;;;;;;8.15;2.72;;;;;;;20.59;75.39;97258.59;5010628;28;20409;-69
2023/06/29 07:29:33;;;;;;;4.88;2.60;;;;;;;20.60;77.48;97262.09;5009912;28;20448;-70
2023/06/29 07:31:59;;;;;;;8.40;2.23;;;;;;;20.66;78.26;97261.59;5010504;28;20426;-70
2023/06/29 07:34:26;;;;;;;3.90;2.10;;;;;;;20.70;79.09;97259.84;5010554;28;20412;-70
2023/06/29 07:36:52;;;;;;;4.03;1.85;;;;;;;20.78;78.37;97253.66;5010541;28;20416;-70
2023/06/29 07:39:20;;;;;;;2.42;1.60;;;;;;;20.86;78.88;97257.44;5010225;28;20401;-70
2023/06/29 07:41:46;;;;;;;7.32;2.75;;;;;;;21.10;71.50;97255.00;5010255;28;20415;-70
2023/06/29 07:44:12;;;;;;;4.93;2.10;;;;;;;21.12;72.59;97250.09;5010603;28;20437;-69
2023/06/29 07:46:38;;;;;;;3.80;1.98;;;;;;;21.20;73.61;97237.72;5010119;28;20407;-69
2023/06/29 07:49:05;;;;;;;4.72;1.90;;;;;;;21.25;69.60;97240.25;5009100;28;20516;-69
2023/06/29 07:51:34;;;;;;;4.03;1.90;;;;;;;21.35;67.33;97247.19;5010530;28;20866;-69
2023/06/29 07:54:01;;;;;;;3.53;1.70;;;;;;;21.33;68.93;97234.03;5010435;28;20492;-69
2023/06/29 07:56:29;;;;;;;3.05;1.70;;;;;;;21.41;70.59;97237.78;5010351;28;20407;-70
2023/06/29 07:58:55;;;;;;;4.10;2.10;;;;;;;21.60;68.58;97240.84;5010135;28;20404;-70
2023/06/29 08:01:25;;;;;;;3.60;2.15;;;;;;;21.75;65.68;97237.59;5009317;28;20514;-69
2023/06/29 08:03:53;;;;;;;3.95;2.10;;;;;;;21.73;67.59;97244.41;5009358;28;20500;-69
2023/06/29 08:06:19;;;;;;;2.57;1.50;;;;;;;21.79;69.16;97232.34;5010818;28;20462;-69
2023/06/29 08:08:46;;;;;;;3.72;1.92;;;;;;;21.86;70.28;97233.41;5010150;28;20423;-69
2023/06/29 08:11:12;;;;;;;5.72;2.50;;;;;;;22.07;66.67;97232.66;5010319;28;20401;-70
2023/06/29 08:13:40;;;;;;;4.35;2.17;;;;;;;22.05;66.93;97234.88;5009964;28;20412;-69
2023/06/29 08:16:07;;;;;;;3.97;1.95;;;;;;;22.12;67.78;97237.84;5010450;28;20913;-69
2023/06/29 08:18:33;;;;;;;6.63;2.65;;;;;;;22.36;62.65;97232.56;5012046;28;20487;-69
2023/06/29 08:20:59;;;;;;;10.50;3.17;;;;;;;22.17;62.26;97235.75;5013968;28;20397;-70
2023/06/29 08:23:26;;;;;;;8.60;2.22;;;;;;;22.18;62.99;97241.91;5013671;28;20810;-69
2023/06/29 08:25:52;;;;;;;5.45;2.20;;;;;;;22.23;64.60;97236.34;5012403;28;20421;-70
2023/06/29 08:28:18;;;;;;;12.55;2.60;;;;;;;22.17;62.11;97224.19;5013617;28;20475;-72
2023/06/29 08:30:46;;;;;;;7.57;2.35;;;;;;;22.13;61.44;97234.81;5008497;28;20904;-69
2023/06/29 08:33:12;;;;;;;4.80;2.03;;;;;;;22.30;63.47;97229.28;4993766;28;20413;-68
2023/06/29 08:35:38;;;;;;;4.47;1.70;;;;;;;22.45;64.43;97227.09;4994141;28;20406;-69
2023/06/29 08:38:05;;;;;;;8.55;2.10;;;;;;;22.53;63.85;97226.25;4994099;28;20413;-69
2023/06/29 08:40:34;;;;;;;3.83;1.80;;;;;;;22.76;61.04;97222.88;4992608;28;20418;-68
2023/06/29 08:43:00;;;;;;;4.35;2.00;;;;;;;22.73;60.98;97228.91;4993466;28;20468;-69
2023/06/29 08:45:27;;;;;;;3.67;1.80;;;;;;;22.81;61.47;97221.06;4993823;28;20437;-70
2023/06/29 08:47:56;;;;;;;2.65;1.60;;;;;;;22.85;63.00;97219.28;4993756;28;20419;-70
2023/06/29 08:50:26;;;;;;;7.35;2.58;;;;;;;22.77;59.78;97213.66;4992911;28;20910;-70
2023/06/29 08:52:54;;;;;;;3.90;1.70;;;;;;;22.84;61.30;97212.31;4993333;28;20417;-71
2023/06/29 08:55:20;;;;;;;6.43;2.13;;;;;;;22.98;60.55;97218.19;5008277;28;20458;-70
2023/06/29 08:57:47;;;;;;;3.53;1.70;;;;;;;23.06;61.84;97209.19;5013188;28;20409;-70
2023/06/29 09:00:15;;;;;;;5.47;2.10;;;;;;;23.48;57.46;97207.88;5013125;28;20412;-70
2023/06/29 09:02:42;;;;;;;4.17;2.03;;;;;;;23.40;58.79;97200.63;5012797;28;20412;-70
2023/06/29 09:05:12;;;;;;;8.68;2.80;;;;;;;23.32;58.13;97203.44;5011648;28;20483;-70
2023/06/29 09:07:40;;;;;;;8.27;2.58;;;;;;;23.47;56.54;97198.16;5011020;28;20467;-70
2023/06/29 09:10:10;;;;;;;3.58;1.80;;;;;;;23.40;58.45;97199.84;5000131;28;20418;-70
2023/06/29 09:12:37;;;;;;;5.55;2.20;;;;;;;23.33;58.92;97200.41;5009736;28;20425;-70
2023/06/29 09:15:13;;;;;;;3.38;1.60;;;;;;;23.40;59.54;97203.34;5012888;28;20405;-70
2023/06/29 09:17:45;;;;;;;4.40;2.20;;;;;;;23.48;57.82;97207.09;5012788;28;20823;-71
2023/06/29 09:20:13;;;;;;;4.05;1.90;;;;;;;23.43;57.83;97201.88;5007004;28;20437;-71
2023/06/29 09:22:40;;;;;;;7.40;2.22;;;;;;;23.30;55.95;97211.91;5001910;28;20545;-71
2023/06/29 09:25:09;;;;;;;5.55;2.20;;;;;;;23.39;55.58;97192.88;5012570;28;20408;-71
2023/06/29 09:27:36;;;;;;;4.93;2.22;;;;;;;23.56;57.16;97208.88;5012518;28;20409;-71
2023/06/29 09:30:04;;;;;;;3.92;1.90;;;;;;;23.78;56.88;97204.91;5011338;28;20866;-70
2023/06/29 09:32:30;;;;;;;4.60;2.07;;;;;;;23.80;56.93;97199.94;5012038;28;20420;-70
2023/06/29 09:35:06;;;;;;;5.13;2.17;;;;;;;23.95;55.88;97201.16;5011232;28;20409;-70
2023/06/29 09:37:35;;;;;;;3.03;1.70;;;;;;;24.01;56.92;97200.56;5012384;28;20405;-70
2023/06/29 09:40:05;;;;;;;2.42;1.58;;;;;;;24.12;56.33;97192.78;5012245;28;20411;-70
2023/06/29 09:42:36;;;;;;;1.92;1.42;;;;;;;24.16;57.37;97193.66;5012379;28;20397;-70
2023/06/29 09:45:07;;;;;;;6.10;1.73;;;;;;;24.27;56.36;97203.69;5012052;28;20407;-70
2023/06/29 09:47:34;;;;;;;4.30;1.92;;;;;;;24.09;55.36;97199.66;5012320;28;20479;-70
2023/06/29 09:50:01;;;;;;;4.50;1.77;;;;;;;24.15;56.90;97194.78;5011712;28;20412;-69
2023/06/29 09:52:27;;;;;;;4.40;1.80;;;;;;;24.37;55.65;97194.28;5011859;28;20401;-70
2023/06/29 09:54:58;;;;;;;2.42;1.60;;;;;;;24.45;56.04;97189.84;5011985;28;20432;-70
2023/06/29 09:57:27;;;;;;;5.82;1.80;;;;;;;24.48;56.45;97191.88;5011568;28;20404;-70
2023/06/29 09:59:54;;;;;;;6.80;2.42;;;;;;;24.44;52.67;97189.06;5009917;28;20403;-71
2023/06/29 10:02:20;;;;;;;3.03;1.73;;;;;;;24.55;54.54;97189.34;5011082;28;20488;-70
2023/06/29 10:04:46;;;;;;;4.18;1.90;;;;;;;24.52;53.72;97188.13;5011939;28;20412;-70
2023/06/29 10:07:16;;;;;;;3.75;1.70;;;;;;;24.62;53.47;97184.13;5012002;28;20467;-70
2023/06/29 10:09:47;;;;;;;8.90;2.40;;;;;;;24.50;52.29;97182.28;5011769;28;20421;-70
2023/06/29 10:12:17;;;;;;;2.60;1.88;;;;;;;24.51;51.54;97183.06;5011471;28;20409;-71
2023/06/29 10:14:45;;;;;;;3.28;2.03;;;;;;;24.63;52.28;97186.50;5011405;28;20540;-70
2023/06/29 10:17:16;;;;;;;3.40;1.73;;;;;;;24.80;53.26;97171.84;5010291;28;20956;-71
2023/06/29 10:19:44;;;;;;;4.47;1.90;;;;;;;25.06;52.94;97164.00;5011703;28;20400;-70
2023/06/29 10:22:14;;;;;;;3.50;1.70;;;;;;;25.20;53.78;97160.84;5011282;28;20404;-70
2023/06/29 10:24:45;;;;;;;4.07;1.83;;;;;;;25.47;52.43;97166.50;5011684;28;20408;-70
2023/06/29 10:27:15;;;;;;;4.15;2.10;;;;;;;25.38;52.06;97162.06;5011679;28;20405;-70
2023/06/29 10:29:45;;;;;;;4.68;2.00;;;;;;;25.38;52.62;97162.06;5011407;28;20897;-70
2023/06/29 10:32:30;;;;;;;2.60;1.70;;;;;;;25.45;53.48;97158.72;5010983;28;20463;-70
2023/06/29 10:35:10;;;;;;;6.18;2.00;;;;;;;25.46;52.55;97160.28;5011401;28;20484;-69
2023/06/29 10:37:37;;;;;;;6.43;2.30;;;;;;;25.51;52.89;97151.88;5011121;28;20416;-71
2023/06/29 10:40:13;;;;;;;3.15;1.90;;;;;;;25.66;53.12;97150.28;5010140;28;20411;-69
2023/06/29 10:42:52;;;;;;;4.70;2.22;;;;;;;25.99;49.38;97144.41;5010677;28;20894;-68
2023/06/29 10:45:33;;;;;;;9.07;2.78;;;;;;;26.24;46.81;97137.53;5011225;28;20403;-69
2023/06/29 10:48:06;;;;;;;5.03;2.50;;;;;;;26.16;46.83;97143.97;5011003;28;20416;-70
2023/06/29 10:50:37;;;;;;;3.60;2.28;;;;;;;25.97;48.18;97142.03;5011084;28;20404;-69
2023/06/29 10:53:05;;;;;;;2.97;2.13;;;;;;;25.72;50.67;97141.53;5009472;28;21008;-70
2023/06/29 10:55:43;;;;;;;3.78;2.40;;;;;;;25.91;47.68;97142.69;5010395;28;20435;-69
2023/06/29 10:58:19;;;;;;;4.83;2.60;;;;;;;25.94;46.37;97142.00;5010558;28;20851;-70
2023/06/29 11:00:46;;;;;;;4.68;2.78;;;;;;;25.96;46.78;97140.47;5009329;28;20413;-69
2023/06/29 11:03:13;;;;;;;5.80;2.88;;;;;;;26.13;46.99;97139.25;5010779;28;20427;-69
2023/06/29 11:05:40;;;;;;;6.20;3.08;;;;;;;26.24;46.16;97131.34;5010874;28;20759;-70
2023/06/29 11:08:07;;;;;;;6.50;2.70;;;;;;;26.09;47.31;97127.53;5010729;28;20501;-70
2023/06/29 11:10:34;;;;;;;4.22;2.20;;;;;;;26.09;49.07;97120.19;5010812;28;20508;-70
2023/06/29 11:13:00;;;;;;;3.47;2.10;;;;;;;26.23;50.35;97124.34;5010603;28;20415;-70
2023/06/29 11:15:28;;;;;;;5.20;2.60;;;;;;;26.30;49.94;97113.66;5010599;28;20416;-70
2023/06/29 11:17:54;;;;;;;3.08;2.20;;;;;;;26.48;51.35;97107.38;5010731;28;20400;-70
2023/06/29 11:20:22;;;;;;;3.97;2.28;;;;;;;26.65;52.00;97114.25;5010858;28;20397;-70
2023/06/29 11:22:51;;;;;;;7.53;2.80;;;;;;;26.85;51.95;97113.03;5010346;28;20810;-70
2023/06/29 11:25:17;;;;;;;6.75;3.10;;;;;;;27.01;51.72;97110.22;5010276;28;20878;-70
2023/06/29 11:27:44;;;;;;;4.65;3.20;;;;;;;27.13;51.76;97110.03;5010291;28;20424;-70
2023/06/29 11:30:13;;;;;;;5.28;3.28;;;;;;;27.25;49.77;97111.75;5010898;28;20427;-70